Time;durP1;ratioP1;P1;durP2;ratioP2;P2;SDS_P1;SDS_P2;PMS_P1;PMS_P2;Temp;Humidity;BMP_temperature;BMP_pressure;BME280_temperature;BME280_humidity;BME280_pressure;Samples;Min_cycle;Max_cycle;Signal;HPM_P1;HPM_P2
2022/10/12 00:01:17;;;;;;;0.10;0.10;;;;;;;;;;4162110;28;20115;-38
2022/10/12 00:03:18;;;;;;;0.10;0.10;;;;;;;;;;4161254;28;20049;-38
2022/10/12 00:05:19;;;;;;;0.10;0.00;;;;;;;;;;4161586;28;20049;-38
2022/10/12 00:07:21;;;;;;;0.05;0.00;;;;;;;;;;4161231;28;20053;-39
2022/10/12 00:09:22;;;;;;;0.40;0.10;;;;;;;;;;4162230;28;20068;-39
2022/10/12 00:11:26;;;;;;;0.10;0.10;;;;;;;;;;4162273;28;20342;-38
2022/10/12 00:13:27;;;;;;;0.10;0.10;;;;;;;;;;4162544;28;20050;-38
2022/10/12 00:15:29;;;;;;;0.20;0.10;;;;;;;;;;4161122;28;20050;-39
2022/10/12 00:17:30;;;;;;;0.10;0.10;;;;;;;;;;4162907;28;20057;-39
2022/10/12 00:19:31;;;;;;;0.15;0.10;;;;;;;;;;4164735;28;20056;-39
2022/10/12 00:21:32;;;;;;;0.10;0.10;;;;;;;;;;4165679;28;20058;-38
2022/10/12 00:23:35;;;;;;;0.08;0.08;;;;;;;;;;4165287;28;20076;-38
2022/10/12 00:25:37;;;;;;;0.10;0.10;;;;;;;;;;4165261;28;20053;-39
2022/10/12 00:27:38;;;;;;;0.10;0.08;;;;;;;;;;4165066;28;20119;-39
2022/10/12 00:29:39;;;;;;;0.10;0.05;;;;;;;;;;4164032;28;20559;-38
2022/10/12 00:31:40;;;;;;;0.40;0.20;;;;;;;;;;4165664;28;20103;-39
2022/10/12 00:33:42;;;;;;;0.20;0.10;;;;;;;;;;4164836;28;20049;-38
2022/10/12 00:35:43;;;;;;;0.00;0.00;;;;;;;;;;4164797;28;20053;-38
2022/10/12 00:37:45;;;;;;;0.03;0.00;;;;;;;;;;4165133;28;20061;-43
2022/10/12 00:39:47;;;;;;;0.32;0.10;;;;;;;;;;4164958;28;20058;-38
2022/10/12 00:41:48;;;;;;;0.30;0.10;;;;;;;;;;4147539;28;20432;-39
2022/10/12 00:43:51;;;;;;;0.35;0.20;;;;;;;;;;4164660;28;20095;-39
2022/10/12 00:45:52;;;;;;;0.22;0.10;;;;;;;;;;4164920;28;20057;-39
2022/10/12 00:47:56;;;;;;;0.05;0.05;;;;;;;;;;4163945;28;20053;-38
2022/10/12 00:50:11;;;;;;;0.28;0.00;;;;;;;;;;4164483;28;20107;-38
2022/10/12 00:52:14;;;;;;;0.13;0.10;;;;;;;;;;4163450;28;20057;-38
2022/10/12 00:54:19;;;;;;;0.00;0.00;;;;;;;;;;4164515;28;20057;-39
2022/10/12 00:56:23;;;;;;;0.10;0.03;;;;;;;;;;4165036;28;20309;-39
2022/10/12 00:58:24;;;;;;;0.08;0.08;;;;;;;;;;4165086;28;20107;-39
2022/10/12 01:00:26;;;;;;;0.10;0.10;;;;;;;;;;4164732;28;20049;-38
2022/10/12 01:02:28;;;;;;;0.22;0.10;;;;;;;;;;4164763;28;20057;-38
2022/10/12 01:04:31;;;;;;;0.00;0.00;;;;;;;;;;4163153;28;20119;-39
2022/10/12 01:06:33;;;;;;;0.00;0.00;;;;;;;;;;4163401;28;20061;-39
2022/10/12 01:08:36;;;;;;;0.10;0.03;;;;;;;;;;4164597;28;20053;-39
2022/10/12 01:10:37;;;;;;;0.13;0.05;;;;;;;;;;4164704;28;20057;-38
2022/10/12 01:12:41;;;;;;;0.17;0.10;;;;;;;;;;4164933;28;20505;-38
2022/10/12 01:14:43;;;;;;;0.10;0.10;;;;;;;;;;4162946;28;20460;-38
2022/10/12 01:16:53;;;;;;;0.20;0.10;;;;;;;;;;4164523;28;20083;-39
2022/10/12 01:19:00;;;;;;;0.50;0.13;;;;;;;;;;4146454;28;20056;-39
2022/10/12 01:21:09;;;;;;;0.00;0.00;;;;;;;;;;4148287;28;20049;-38
2022/10/12 01:23:17;;;;;;;0.60;0.20;;;;;;;;;;4161306;28;20502;-39
2022/10/12 01:25:27;;;;;;;0.10;0.10;;;;;;;;;;4151641;28;20442;-38
2022/10/12 01:27:35;;;;;;;0.00;0.00;;;;;;;;;;4164550;28;20437;-39
2022/10/12 01:29:55;;;;;;;0.00;0.00;;;;;;;;;;4163396;28;20442;-38
2022/10/12 01:32:16;;;;;;;0.80;0.10;;;;;;;;;;4152373;28;20053;-39
2022/10/12 01:34:40;;;;;;;0.10;0.10;;;;;;;;;;4146199;28;20533;-43
2022/10/12 01:36:45;;;;;;;0.10;0.10;;;;;;;;;;4164082;28;20092;-39
2022/10/12 01:38:58;;;;;;;0.22;0.10;;;;;;;;;;4164335;28;20103;-38
2022/10/12 01:41:17;;;;;;;0.13;0.10;;;;;;;;;;4164632;28;20099;-39
2022/10/12 01:43:22;;;;;;;0.20;0.00;;;;;;;;;;4133477;28;20054;-39
2022/10/12 01:45:23;;;;;;;0.20;0.00;;;;;;;;;;4164418;28;20501;-39
2022/10/12 01:47:24;;;;;;;0.00;0.00;;;;;;;;;;4164161;28;20108;-39
2022/10/12 01:49:28;;;;;;;0.08;0.08;;;;;;;;;;4163519;28;20103;-39
2022/10/12 01:51:54;;;;;;;0.10;0.10;;;;;;;;;;4162589;28;20540;-38
2022/10/12 01:54:11;;;;;;;0.10;0.00;;;;;;;;;;4163434;28;20115;-38
2022/10/12 01:56:15;;;;;;;0.10;0.10;;;;;;;;;;4161978;28;20057;-38
2022/10/12 01:58:19;;;;;;;0.00;0.00;;;;;;;;;;4162689;28;20049;-39
2022/10/12 02:00:20;;;;;;;0.00;0.00;;;;;;;;;;4163665;28;20053;-38
2022/10/12 02:02:31;;;;;;;0.10;0.10;;;;;;;;;;4163847;28;20439;-38
2022/10/12 02:04:48;;;;;;;0.17;0.10;;;;;;;;;;4163086;28;20061;-38
2022/10/12 02:06:54;;;;;;;0.13;0.10;;;;;;;;;;4162254;28;20062;-39
2022/10/12 02:09:17;;;;;;;0.05;0.00;;;;;;;;;;4146333;28;20057;-39
2022/10/12 02:11:19;;;;;;;0.00;0.00;;;;;;;;;;4151801;28;20049;-38
2022/10/12 02:13:23;;;;;;;0.30;0.10;;;;;;;;;;4146094;28;20469;-39
2022/10/12 02:15:25;;;;;;;0.28;0.10;;;;;;;;;;4163691;28;20346;-39
2022/10/12 02:17:27;;;;;;;0.10;0.10;;;;;;;;;;4162269;28;20053;-39
2022/10/12 02:19:32;;;;;;;0.10;0.10;;;;;;;;;;4150992;28;20103;-39
2022/10/12 02:21:34;;;;;;;0.00;0.00;;;;;;;;;;4162324;28;20497;-39
2022/10/12 02:23:35;;;;;;;0.10;0.10;;;;;;;;;;4140227;28;20666;-39
2022/10/12 02:25:37;;;;;;;0.20;0.10;;;;;;;;;;4161878;28;20057;-38
2022/10/12 02:27:42;;;;;;;0.13;0.10;;;;;;;;;;4162459;28;20053;-39
2022/10/12 02:29:45;;;;;;;0.10;0.10;;;;;;;;;;4162116;28;20053;-38
2022/10/12 02:31:55;;;;;;;0.20;0.10;;;;;;;;;;4162351;28;20119;-39
2022/10/12 02:34:01;;;;;;;0.20;0.20;;;;;;;;;;4161452;28;20100;-39
2022/10/12 02:36:12;;;;;;;0.30;0.10;;;;;;;;;;4163393;28;20508;-39
2022/10/12 02:38:19;;;;;;;0.43;0.05;;;;;;;;;;4145844;28;20256;-38
2022/10/12 02:40:36;;;;;;;0.10;0.10;;;;;;;;;;4158426;28;20120;-39
2022/10/12 02:42:40;;;;;;;0.10;0.10;;;;;;;;;;4152557;28;20053;-39
2022/10/12 02:44:42;;;;;;;0.00;0.00;;;;;;;;;;4145494;28;20082;-38
2022/10/12 02:46:45;;;;;;;0.30;0.10;;;;;;;;;;4162167;28;20060;-38
2022/10/12 02:48:47;;;;;;;0.22;0.00;;;;;;;;;;4160917;28;20358;-39
2022/10/12 02:50:51;;;;;;;0.22;0.10;;;;;;;;;;4163233;28;20172;-39
2022/10/12 02:52:53;;;;;;;0.00;0.00;;;;;;;;;;4158125;28;20050;-38
2022/10/12 02:54:54;;;;;;;0.20;0.00;;;;;;;;;;4156446;28;20469;-39
2022/10/12 02:56:55;;;;;;;0.10;0.10;;;;;;;;;;4158997;28;20057;-39
2022/10/12 02:58:57;;;;;;;0.20;0.10;;;;;;;;;;4162053;28;20131;-38
2022/10/12 03:00:58;;;;;;;0.38;0.10;;;;;;;;;;4160647;28;20088;-39
2022/10/12 03:02:59;;;;;;;0.25;0.00;;;;;;;;;;4162823;28;20144;-38
2022/10/12 03:05:00;;;;;;;0.65;0.08;;;;;;;;;;4161178;28;20125;-48
2022/10/12 03:07:02;;;;;;;0.25;0.10;;;;;;;;;;4161272;28;20057;-39
2022/10/12 03:09:04;;;;;;;0.10;0.03;;;;;;;;;;4162052;28;20111;-39
2022/10/12 03:11:07;;;;;;;0.25;0.00;;;;;;;;;;4163140;28;20057;-38
2022/10/12 03:13:09;;;;;;;0.10;0.10;;;;;;;;;;4162823;28;20049;-38
2022/10/12 03:15:10;;;;;;;0.00;0.00;;;;;;;;;;4162572;28;20045;-39
2022/10/12 03:17:11;;;;;;;0.13;0.10;;;;;;;;;;4163027;28;20456;-38
2022/10/12 03:19:13;;;;;;;0.00;0.00;;;;;;;;;;4152291;28;20057;-39
2022/10/12 03:21:14;;;;;;;0.00;0.00;;;;;;;;;;4158745;28;20057;-39
2022/10/12 03:23:16;;;;;;;0.00;0.00;;;;;;;;;;4162476;28;20088;-38
2022/10/12 03:25:18;;;;;;;0.03;0.00;;;;;;;;;;4162604;28;20054;-39
2022/10/12 03:27:19;;;;;;;0.00;0.00;;;;;;;;;;4162953;28;20119;-39
2022/10/12 03:29:20;;;;;;;0.10;0.10;;;;;;;;;;4162706;28;20531;-38
2022/10/12 03:31:22;;;;;;;0.00;0.00;;;;;;;;;;4162499;28;20080;-39
2022/10/12 03:33:23;;;;;;;0.13;0.08;;;;;;;;;;4162431;28;20061;-38
2022/10/12 03:35:25;;;;;;;0.00;0.00;;;;;;;;;;4162378;28;20124;-39
2022/10/12 03:37:26;;;;;;;0.75;0.25;;;;;;;;;;4162449;28;20057;-39
2022/10/12 03:39:27;;;;;;;0.20;0.10;;;;;;;;;;4162061;28;20515;-39
2022/10/12 03:41:29;;;;;;;0.10;0.10;;;;;;;;;;4162780;28;20057;-39
2022/10/12 03:43:30;;;;;;;0.15;0.15;;;;;;;;;;4162502;28;20416;-39
2022/10/12 03:45:31;;;;;;;0.00;0.00;;;;;;;;;;4162535;28;20053;-39
2022/10/12 03:47:33;;;;;;;0.13;0.10;;;;;;;;;;4162506;28;20061;-39
2022/10/12 03:49:34;;;;;;;0.13;0.10;;;;;;;;;;4144176;28;20060;-39
2022/10/12 03:51:36;;;;;;;0.05;0.05;;;;;;;;;;4162537;28;20053;-38
2022/10/12 03:53:37;;;;;;;0.40;0.10;;;;;;;;;;4163486;28;20065;-39
2022/10/12 03:55:38;;;;;;;0.00;0.00;;;;;;;;;;4165757;28;20401;-38
2022/10/12 03:57:39;;;;;;;0.03;0.00;;;;;;;;;;4165542;28;20053;-38
2022/10/12 03:59:40;;;;;;;0.00;0.00;;;;;;;;;;4164736;28;20064;-38
2022/10/12 04:01:42;;;;;;;0.00;0.00;;;;;;;;;;4165941;28;20076;-38
2022/10/12 04:03:43;;;;;;;0.40;0.10;;;;;;;;;;4165220;28;20515;-39
2022/10/12 04:05:54;;;;;;;0.05;0.05;;;;;;;;;;4165157;28;20057;-39
2022/10/12 04:07:56;;;;;;;0.20;0.10;;;;;;;;;;4164619;28;20057;-38
2022/10/12 04:09:57;;;;;;;0.00;0.00;;;;;;;;;;4165594;28;20061;-39
2022/10/12 04:11:58;;;;;;;0.20;0.10;;;;;;;;;;4164978;28;20520;-38
2022/10/12 04:13:59;;;;;;;0.10;0.08;;;;;;;;;;4164986;28;20105;-39
2022/10/12 04:16:02;;;;;;;0.10;0.10;;;;;;;;;;4164260;28;20506;-38
2022/10/12 04:18:04;;;;;;;0.35;0.10;;;;;;;;;;4158480;28;20050;-38
2022/10/12 04:20:05;;;;;;;0.15;0.10;;;;;;;;;;4159120;28;20062;-38
2022/10/12 04:22:07;;;;;;;0.30;0.00;;;;;;;;;;4165201;28;20064;-39
2022/10/12 04:24:08;;;;;;;0.03;0.03;;;;;;;;;;4165354;28;20053;-38
2022/10/12 04:26:09;;;;;;;0.20;0.10;;;;;;;;;;4165440;28;20084;-39
2022/10/12 04:28:11;;;;;;;0.00;0.00;;;;;;;;;;4164076;28;20538;-38
2022/10/12 04:30:12;;;;;;;0.00;0.00;;;;;;;;;;4165286;28;20091;-38
2022/10/12 04:32:14;;;;;;;0.05;0.00;;;;;;;;;;4165042;28;20057;-38
2022/10/12 04:34:15;;;;;;;0.10;0.00;;;;;;;;;;4163404;28;20053;-39
2022/10/12 04:36:16;;;;;;;0.10;0.10;;;;;;;;;;4165386;28;20054;-38
2022/10/12 04:38:18;;;;;;;0.10;0.10;;;;;;;;;;4165447;28;20054;-38
2022/10/12 04:40:19;;;;;;;0.20;0.00;;;;;;;;;;4163545;28;20065;-38
2022/10/12 04:42:21;;;;;;;0.00;0.00;;;;;;;;;;4165186;28;20456;-38
2022/10/12 04:44:22;;;;;;;0.30;0.10;;;;;;;;;;4165109;28;20401;-38
2022/10/12 04:46:23;;;;;;;0.10;0.10;;;;;;;;;;4163982;28;20065;-38
2022/10/12 04:48:25;;;;;;;0.00;0.00;;;;;;;;;;4174346;28;20459;-39
2022/10/12 04:50:26;;;;;;;0.00;0.00;;;;;;;;;;4138525;28;20116;-38
2022/10/12 04:52:28;;;;;;;0.75;0.20;;;;;;;;;;4156506;28;20068;-40
2022/10/12 04:54:31;;;;;;;0.20;0.10;;;;;;;;;;4154663;28;20050;-39
2022/10/12 04:56:32;;;;;;;0.00;0.00;;;;;;;;;;4158340;28;20057;-38
2022/10/12 04:58:33;;;;;;;0.00;0.00;;;;;;;;;;4162466;28;20571;-38
2022/10/12 05:00:35;;;;;;;0.10;0.10;;;;;;;;;;4162545;28;20131;-39
2022/10/12 05:02:36;;;;;;;0.10;0.10;;;;;;;;;;4162558;28;20061;-39
2022/10/12 05:04:38;;;;;;;0.85;0.10;;;;;;;;;;4161837;28;20054;-38
2022/10/12 05:06:39;;;;;;;0.30;0.17;;;;;;;;;;4161623;28;20063;-39
2022/10/12 05:08:40;;;;;;;0.15;0.10;;;;;;;;;;4157753;28;20059;-39
2022/10/12 05:10:41;;;;;;;0.10;0.10;;;;;;;;;;4162438;28;20103;-39
2022/10/12 05:12:43;;;;;;;0.47;0.20;;;;;;;;;;4162651;28;20635;-39
2022/10/12 05:14:44;;;;;;;0.22;0.10;;;;;;;;;;4160668;28;20087;-38
2022/10/12 05:16:45;;;;;;;0.55;0.17;;;;;;;;;;4162417;28;20053;-38
2022/10/12 05:18:47;;;;;;;0.43;0.20;;;;;;;;;;4162096;28;20523;-38
2022/10/12 05:20:48;;;;;;;0.15;0.10;;;;;;;;;;4162455;28;20103;-38
2022/10/12 05:22:49;;;;;;;0.43;0.13;;;;;;;;;;4161085;28;20060;-39
2022/10/12 05:24:51;;;;;;;0.30;0.20;;;;;;;;;;4148845;28;20053;-38
2022/10/12 05:26:52;;;;;;;0.28;0.20;;;;;;;;;;4161914;28;20454;-38
2022/10/12 05:28:53;;;;;;;0.10;0.10;;;;;;;;;;4162061;28;20061;-38
2022/10/12 05:30:55;;;;;;;0.13;0.10;;;;;;;;;;4162479;28;20064;-39
2022/10/12 05:32:56;;;;;;;0.15;0.15;;;;;;;;;;4161989;28;20057;-38
2022/10/12 05:34:57;;;;;;;0.30;0.20;;;;;;;;;;4161507;28;20122;-38
2022/10/12 05:36:58;;;;;;;0.57;0.10;;;;;;;;;;4162414;28;20057;-38
2022/10/12 05:39:00;;;;;;;0.15;0.15;;;;;;;;;;4160637;28;20065;-38
2022/10/12 05:41:01;;;;;;;0.82;0.20;;;;;;;;;;4159684;28;20115;-39
2022/10/12 05:43:02;;;;;;;0.17;0.10;;;;;;;;;;4160561;28;20088;-38
2022/10/12 05:45:05;;;;;;;0.30;0.30;;;;;;;;;;4152961;28;20057;-38
2022/10/12 05:47:06;;;;;;;0.20;0.20;;;;;;;;;;4162018;28;20548;-39
2022/10/12 05:49:07;;;;;;;0.20;0.20;;;;;;;;;;4160278;28;20057;-40
2022/10/12 05:51:08;;;;;;;0.20;0.20;;;;;;;;;;4148841;28;20496;-38
2022/10/12 05:53:10;;;;;;;0.25;0.20;;;;;;;;;;4162114;28;20053;-38
2022/10/12 05:55:11;;;;;;;0.38;0.35;;;;;;;;;;4161931;28;20053;-38
2022/10/12 05:57:14;;;;;;;0.28;0.15;;;;;;;;;;4161794;28;20068;-39
2022/10/12 05:59:15;;;;;;;0.63;0.30;;;;;;;;;;4161696;28;20115;-38
2022/10/12 06:01:16;;;;;;;0.65;0.20;;;;;;;;;;4157015;28;20132;-40
2022/10/12 06:03:18;;;;;;;0.30;0.20;;;;;;;;;;4156164;28;20099;-39
2022/10/12 06:05:19;;;;;;;0.35;0.20;;;;;;;;;;4158999;28;20539;-38
2022/10/12 06:07:20;;;;;;;0.40;0.30;;;;;;;;;;4159766;28;20456;-38
2022/10/12 06:09:22;;;;;;;0.40;0.28;;;;;;;;;;4157703;28;20049;-38
2022/10/12 06:11:23;;;;;;;0.20;0.10;;;;;;;;;;4159067;28;20053;-38
2022/10/12 06:13:24;;;;;;;0.68;0.20;;;;;;;;;;4154998;28;20069;-39
2022/10/12 06:15:26;;;;;;;0.63;0.35;;;;;;;;;;4157573;28;20049;-39
2022/10/12 06:17:27;;;;;;;0.35;0.25;;;;;;;;;;4152124;28;20361;-38
2022/10/12 06:19:28;;;;;;;0.32;0.32;;;;;;;;;;4155450;28;20150;-39
2022/10/12 06:21:30;;;;;;;0.22;0.20;;;;;;;;;;4150961;28;20057;-38
2022/10/12 06:23:31;;;;;;;1.73;0.32;;;;;;;;;;4151266;28;20062;-38
2022/10/12 06:25:32;;;;;;;0.82;0.30;;;;;;;;;;4156313;28;20049;-38
2022/10/12 06:27:34;;;;;;;0.20;0.20;;;;;;;;;;4153845;28;20107;-39
2022/10/12 06:29:37;;;;;;;0.90;0.35;;;;;;;;;;4153855;28;20064;-39
2022/10/12 06:31:38;;;;;;;0.35;0.20;;;;;;;;;;4148453;28;20076;-39
2022/10/12 06:33:40;;;;;;;0.65;0.30;;;;;;;;;;4146129;28;20085;-40
2022/10/12 06:35:41;;;;;;;0.30;0.30;;;;;;;;;;4151850;28;20187;-39
2022/10/12 06:37:49;;;;;;;0.93;0.30;;;;;;;;;;4142049;28;20057;-38
2022/10/12 06:39:50;;;;;;;0.32;0.28;;;;;;;;;;4147508;28;20053;-40
2022/10/12 06:41:53;;;;;;;2.60;0.47;;;;;;;;;;4143318;28;20535;-40
2022/10/12 06:43:55;;;;;;;1.20;0.50;;;;;;;;;;4157485;28;20045;-40
2022/10/12 06:46:00;;;;;;;4.07;0.68;;;;;;;;;;4138210;28;20111;-40
2022/10/12 06:48:02;;;;;;;0.45;0.30;;;;;;;;;;4143074;28;20052;-40
2022/10/12 06:50:04;;;;;;;1.17;0.40;;;;;;;;;;4143690;28;20060;-41
2022/10/12 06:52:05;;;;;;;0.75;0.30;;;;;;;;;;4144648;28;20114;-41
2022/10/12 06:54:06;;;;;;;0.80;0.32;;;;;;;;;;4139328;28;20049;-41
2022/10/12 06:56:08;;;;;;;0.80;0.25;;;;;;;;;;4143666;28;20124;-41
2022/10/12 06:58:10;;;;;;;1.55;0.50;;;;;;;;;;4144174;28;20170;-40
2022/10/12 07:00:12;;;;;;;1.58;0.43;;;;;;;;;;4140236;28;20068;-41
2022/10/12 07:02:14;;;;;;;0.82;0.32;;;;;;;;;;4142397;28;20134;-41
2022/10/12 07:04:16;;;;;;;3.03;0.40;;;;;;;;;;4143044;28;20562;-41
2022/10/12 07:06:17;;;;;;;0.90;0.40;;;;;;;;;;4134456;28;20100;-42
2022/10/12 07:08:19;;;;;;;1.25;0.30;;;;;;;;;;4136141;28;20538;-40
2022/10/12 07:10:20;;;;;;;0.85;0.40;;;;;;;;;;4128556;28;20065;-40
2022/10/12 07:12:22;;;;;;;0.95;0.32;;;;;;;;;;4137395;28;20126;-40
2022/10/12 07:14:23;;;;;;;1.95;0.40;;;;;;;;;;4138070;28;20053;-41
2022/10/12 07:16:24;;;;;;;0.85;0.40;;;;;;;;;;4141180;28;20154;-40
2022/10/12 07:18:26;;;;;;;1.83;0.30;;;;;;;;;;4142990;28;20057;-40
2022/10/12 07:20:27;;;;;;;0.82;0.38;;;;;;;;;;4142667;28;20416;-40
2022/10/12 07:22:28;;;;;;;0.93;0.40;;;;;;;;;;4141279;28;21100;-40
2022/10/12 07:24:35;;;;;;;0.77;0.30;;;;;;;;;;4137480;28;20050;-41
2022/10/12 07:26:36;;;;;;;0.90;0.20;;;;;;;;;;4140645;28;20053;-40
2022/10/12 07:28:37;;;;;;;0.50;0.22;;;;;;;;;;4143518;28;21812;-40
2022/10/12 07:30:39;;;;;;;0.90;0.20;;;;;;;;;;4140626;28;20104;-41
2022/10/12 07:32:41;;;;;;;0.77;0.40;;;;;;;;;;4145301;28;20061;-40
2022/10/12 07:34:43;;;;;;;0.55;0.28;;;;;;;;;;4136579;28;21507;-40
2022/10/12 07:36:44;;;;;;;1.75;0.50;;;;;;;;;;4139221;28;20483;-39
2022/10/12 07:38:47;;;;;;;1.88;0.40;;;;;;;;;;4136903;28;20154;-39
2022/10/12 07:40:48;;;;;;;1.20;0.40;;;;;;;;;;4145433;28;20064;-39
2022/10/12 07:42:50;;;;;;;0.43;0.13;;;;;;;;;;4144245;28;20084;-39
2022/10/12 07:44:51;;;;;;;0.95;0.25;;;;;;;;;;4144689;28;20060;-39
2022/10/12 07:46:53;;;;;;;0.35;0.20;;;;;;;;;;4148094;28;20448;-39
2022/10/12 07:48:54;;;;;;;1.88;0.38;;;;;;;;;;4142906;28;20053;-39
2022/10/12 07:51:02;;;;;;;1.08;0.30;;;;;;;;;;4142531;28;20328;-39
2022/10/12 07:53:04;;;;;;;0.65;0.20;;;;;;;;;;4140106;28;20552;-39
2022/10/12 07:55:06;;;;;;;0.32;0.20;;;;;;;;;;4140384;28;20670;-39
2022/10/12 07:57:07;;;;;;;1.00;0.30;;;;;;;;;;4139656;28;20057;-39
2022/10/12 07:59:09;;;;;;;3.42;0.30;;;;;;;;;;4137417;28;20064;-39
2022/10/12 08:01:10;;;;;;;0.45;0.30;;;;;;;;;;4143062;28;20104;-39
2022/10/12 08:03:11;;;;;;;0.95;0.40;;;;;;;;;;4136514;28;20473;-39
2022/10/12 08:05:13;;;;;;;0.52;0.30;;;;;;;;;;4142769;28;20046;-39
2022/10/12 08:07:14;;;;;;;0.40;0.20;;;;;;;;;;4136606;28;20110;-40
2022/10/12 08:09:15;;;;;;;0.22;0.22;;;;;;;;;;4134502;28;20452;-39
2022/10/12 08:11:17;;;;;;;2.38;0.40;;;;;;;;;;4137599;28;20061;-39
2022/10/12 08:13:18;;;;;;;1.60;0.28;;;;;;;;;;4141052;28;20063;-39
2022/10/12 08:15:19;;;;;;;2.30;0.40;;;;;;;;;;4145109;28;20547;-39
2022/10/12 08:17:21;;;;;;;0.50;0.30;;;;;;;;;;4146448;28;20068;-39
2022/10/12 08:19:23;;;;;;;0.50;0.30;;;;;;;;;;4142528;28;20053;-39
2022/10/12 08:21:24;;;;;;;0.30;0.25;;;;;;;;;;4142597;28;20071;-39
2022/10/12 08:23:25;;;;;;;0.57;0.30;;;;;;;;;;4141182;28;20421;-39
2022/10/12 08:25:26;;;;;;;0.98;0.40;;;;;;;;;;4139113;28;20053;-39
2022/10/12 08:27:29;;;;;;;2.00;0.85;;;;;;;;;;4133548;28;20072;-39
2022/10/12 08:29:30;;;;;;;4.45;0.43;;;;;;;;;;4133597;28;20053;-40
2022/10/12 08:31:32;;;;;;;0.90;0.50;;;;;;;;;;4141521;28;20674;-41
2022/10/12 08:33:33;;;;;;;1.85;0.40;;;;;;;;;;4139740;28;20120;-40
2022/10/12 08:35:37;;;;;;;3.75;0.25;;;;;;;;;;4137944;28;20053;-40
2022/10/12 08:37:39;;;;;;;0.22;0.10;;;;;;;;;;4139036;28;20065;-40
2022/10/12 08:39:40;;;;;;;0.95;0.32;;;;;;;;;;4140677;28;20429;-40
2022/10/12 08:41:47;;;;;;;0.57;0.40;;;;;;;;;;4146583;28;20080;-40
2022/10/12 08:44:00;;;;;;;0.75;0.38;;;;;;;;;;4141659;28;20069;-40
2022/10/12 08:46:02;;;;;;;0.63;0.22;;;;;;;;;;4147051;28;20805;-40
2022/10/12 08:48:12;;;;;;;0.55;0.20;;;;;;;;;;4129586;28;20402;-42
2022/10/12 08:50:38;;;;;;;0.30;0.30;;;;;;;;;;4144216;28;20061;-40
2022/10/12 08:52:50;;;;;;;1.58;0.43;;;;;;;;;;4142549;28;20092;-39
2022/10/12 08:54:52;;;;;;;0.30;0.20;;;;;;;;;;4147672;28;20061;-39
2022/10/12 08:56:54;;;;;;;0.30;0.30;;;;;;;;;;4133088;28;20856;-39
2022/10/12 08:58:55;;;;;;;0.45;0.30;;;;;;;;;;4145338;28;20061;-40
2022/10/12 09:01:01;;;;;;;0.82;0.25;;;;;;;;;;4145717;28;20083;-39
2022/10/12 09:03:11;;;;;;;0.93;0.28;;;;;;;;;;4141400;28;20689;-40
2022/10/12 09:05:26;;;;;;;1.10;0.30;;;;;;;;;;4142055;28;20135;-41
2022/10/12 09:07:32;;;;;;;0.70;0.40;;;;;;;;;;4145954;28;20094;-40
2022/10/12 09:09:47;;;;;;;0.82;0.20;;;;;;;;;;4146848;28;20540;-43
2022/10/12 09:12:10;;;;;;;1.75;0.30;;;;;;;;;;4151479;28;20053;-49
2022/10/12 09:14:19;;;;;;;0.40;0.30;;;;;;;;;;4146119;28;20049;-41
2022/10/12 09:16:23;;;;;;;0.50;0.50;;;;;;;;;;4149967;28;20053;-40
2022/10/12 09:18:37;;;;;;;0.55;0.40;;;;;;;;;;4150801;28;20061;-40
2022/10/12 09:20:58;;;;;;;1.30;0.40;;;;;;;;;;4153839;28;20135;-41
2022/10/12 09:23:08;;;;;;;0.47;0.32;;;;;;;;;;4154026;28;20112;-41
2022/10/12 09:25:13;;;;;;;0.82;0.40;;;;;;;;;;4148621;28;20053;-41
2022/10/12 09:27:17;;;;;;;0.30;0.30;;;;;;;;;;4153981;28;20053;-40
2022/10/12 09:29:27;;;;;;;4.53;0.40;;;;;;;;;;4145938;28;20057;-41
2022/10/12 09:31:42;;;;;;;0.28;0.20;;;;;;;;;;4144991;28;20741;-41
2022/10/12 09:33:48;;;;;;;0.25;0.20;;;;;;;;;;4135608;28;20139;-41
2022/10/12 09:35:49;;;;;;;0.40;0.28;;;;;;;;;;4142273;28;20053;-40
2022/10/12 09:37:52;;;;;;;2.22;0.30;;;;;;;;;;4143448;28;20057;-40
2022/10/12 09:39:54;;;;;;;0.40;0.20;;;;;;;;;;4143161;28;20529;-41
2022/10/12 09:41:55;;;;;;;0.60;0.30;;;;;;;;;;4136830;28;20061;-41
2022/10/12 09:43:59;;;;;;;1.75;0.25;;;;;;;;;;4148541;28;21188;-39
2022/10/12 09:46:04;;;;;;;2.92;0.28;;;;;;;;;;4147938;28;20053;-39
2022/10/12 09:48:17;;;;;;;0.55;0.30;;;;;;;;;;4149468;28;20050;-39
2022/10/12 09:50:38;;;;;;;0.70;0.30;;;;;;;;;;4144069;28;20516;-40
2022/10/12 09:52:42;;;;;;;0.35;0.20;;;;;;;;;;4146415;28;20116;-40
2022/10/12 09:54:49;;;;;;;0.60;0.20;;;;;;;;;;4133041;28;20058;-40
2022/10/12 09:56:51;;;;;;;0.93;0.20;;;;;;;;;;4152330;28;20060;-40
2022/10/12 09:58:55;;;;;;;0.55;0.20;;;;;;;;;;4146367;28;20670;-39
2022/10/12 10:01:20;;;;;;;0.47;0.20;;;;;;;;;;4143248;28;20190;-39
2022/10/12 10:03:23;;;;;;;0.38;0.30;;;;;;;;;;4146546;28;20149;-39
2022/10/12 10:05:25;;;;;;;0.85;0.32;;;;;;;;;;4150670;28;20057;-39
2022/10/12 10:07:35;;;;;;;0.40;0.20;;;;;;;;;;4151876;28;20159;-40
2022/10/12 10:09:36;;;;;;;3.13;0.40;;;;;;;;;;4145603;28;20131;-40
2022/10/12 10:11:38;;;;;;;0.40;0.22;;;;;;;;;;4143770;28;20113;-39
2022/10/12 10:13:45;;;;;;;0.60;0.30;;;;;;;;;;4148718;28;20053;-39
2022/10/12 10:15:49;;;;;;;0.35;0.20;;;;;;;;;;4150893;28;20045;-40
2022/10/12 10:17:53;;;;;;;0.28;0.20;;;;;;;;;;4151055;28;20127;-40
2022/10/12 10:19:56;;;;;;;0.65;0.40;;;;;;;;;;4142183;28;20061;-43
2022/10/12 10:22:04;;;;;;;0.43;0.20;;;;;;;;;;4153452;28;20058;-41
2022/10/12 10:24:17;;;;;;;0.32;0.15;;;;;;;;;;4129520;28;20053;-40
2022/10/12 10:26:20;;;;;;;0.45;0.30;;;;;;;;;;4149678;28;20080;-40
2022/10/12 10:28:23;;;;;;;1.55;0.35;;;;;;;;;;4143467;28;20127;-40
2022/10/12 10:30:26;;;;;;;0.43;0.22;;;;;;;;;;4146807;28;20551;-39
2022/10/12 10:32:28;;;;;;;0.50;0.25;;;;;;;;;;4146554;28;20253;-40
2022/10/12 10:34:29;;;;;;;1.40;0.20;;;;;;;;;;4145854;28;20064;-39
2022/10/12 10:36:32;;;;;;;2.60;0.20;;;;;;;;;;4148629;28;20041;-39
2022/10/12 10:38:52;;;;;;;3.38;0.30;;;;;;;;;;4148120;28;20135;-40
2022/10/12 10:40:55;;;;;;;0.40;0.28;;;;;;;;;;4152135;28;20053;-40
2022/10/12 10:43:20;;;;;;;0.75;0.20;;;;;;;;;;4147028;28;20061;-40
2022/10/12 10:45:24;;;;;;;0.30;0.20;;;;;;;;;;4146594;28;20054;-39
2022/10/12 10:47:26;;;;;;;0.52;0.50;;;;;;;;;;4132092;28;20061;-40
2022/10/12 10:49:35;;;;;;;0.32;0.20;;;;;;;;;;4144579;28;20057;-40
2022/10/12 10:51:47;;;;;;;0.57;0.30;;;;;;;;;;4150246;28;20049;-39
2022/10/12 10:53:49;;;;;;;0.47;0.30;;;;;;;;;;4152497;28;20057;-39
2022/10/12 10:56:13;;;;;;;0.85;0.43;;;;;;;;;;4145716;28;20061;-39
2022/10/12 10:58:41;;;;;;;0.50;0.30;;;;;;;;;;4148454;28;20056;-40
2022/10/12 11:00:43;;;;;;;0.50;0.20;;;;;;;;;;4150673;28;20049;-39
2022/10/12 11:02:51;;;;;;;1.33;0.38;;;;;;;;;;4135739;28;20058;-39
2022/10/12 11:04:59;;;;;;;0.40;0.30;;;;;;;;;;4139063;28;20053;-40
2022/10/12 11:07:04;;;;;;;0.20;0.20;;;;;;;;;;4148336;28;20671;-39
2022/10/12 11:09:12;;;;;;;0.47;0.20;;;;;;;;;;4145475;28;20496;-40
2022/10/12 11:11:20;;;;;;;0.75;0.40;;;;;;;;;;4118343;28;20066;-40
2022/10/12 11:14:11;;;;;;;0.82;0.30;;;;;;;;;;4138053;28;20517;-40
2022/10/12 11:16:30;;;;;;;0.68;0.30;;;;;;;;;;4153262;28;20111;-39
2022/10/12 11:18:41;;;;;;;0.32;0.30;;;;;;;;;;4143984;28;20057;-40
2022/10/12 11:20:47;;;;;;;1.20;0.30;;;;;;;;;;4152236;28;20452;-39
2022/10/12 11:22:53;;;;;;;0.82;0.22;;;;;;;;;;4142832;28;20057;-39
2022/10/12 11:25:06;;;;;;;1.45;0.30;;;;;;;;;;4148476;28;20111;-40
2022/10/12 11:27:09;;;;;;;2.15;0.30;;;;;;;;;;4139929;28;20061;-40
2022/10/12 11:29:12;;;;;;;1.65;0.35;;;;;;;;;;4142198;28;20053;-40
2022/10/12 11:31:19;;;;;;;0.75;0.30;;;;;;;;;;4144268;28;20065;-40
2022/10/12 11:33:23;;;;;;;0.32;0.30;;;;;;;;;;4146390;28;20107;-40
2022/10/12 11:35:35;;;;;;;1.35;0.30;;;;;;;;;;4145137;28;20119;-40
2022/10/12 11:37:40;;;;;;;0.60;0.30;;;;;;;;;;4141955;28;20058;-40
2022/10/12 11:39:44;;;;;;;0.80;0.30;;;;;;;;;;4149367;28;20052;-40
2022/10/12 11:41:48;;;;;;;2.03;0.30;;;;;;;;;;4144722;28;20053;-40
2022/10/12 11:43:56;;;;;;;1.95;0.30;;;;;;;;;;4145216;28;20619;-40
2022/10/12 11:46:02;;;;;;;0.50;0.30;;;;;;;;;;4122315;28;20591;-39
2022/10/12 11:48:09;;;;;;;2.53;0.30;;;;;;;;;;4142742;28;20053;-40
2022/10/12 11:50:23;;;;;;;0.85;0.30;;;;;;;;;;4145947;28;20092;-40
2022/10/12 11:52:25;;;;;;;2.83;0.20;;;;;;;;;;4141648;28;20057;-41
2022/10/12 11:54:38;;;;;;;1.95;0.40;;;;;;;;;;4148865;28;20057;-41
2022/10/12 11:56:42;;;;;;;0.40;0.30;;;;;;;;;;4147555;28;20068;-40
2022/10/12 11:58:44;;;;;;;1.08;0.40;;;;;;;;;;4138148;28;20053;-40
2022/10/12 12:01:04;;;;;;;0.50;0.20;;;;;;;;;;4134586;28;20065;-40
2022/10/12 12:03:43;;;;;;;0.70;0.20;;;;;;;;;;4141779;28;20498;-41
2022/10/12 12:05:45;;;;;;;0.50;0.20;;;;;;;;;;4129486;28;20490;-40
2022/10/12 12:07:55;;;;;;;0.32;0.20;;;;;;;;;;4130803;28;20172;-41
2022/10/12 12:09:56;;;;;;;0.50;0.20;;;;;;;;;;4148406;28;20053;-41
2022/10/12 12:12:22;;;;;;;0.40;0.40;;;;;;;;;;4146966;28;20053;-40
2022/10/12 12:14:26;;;;;;;0.60;0.20;;;;;;;;;;4150631;28;20579;-40
2022/10/12 12:16:31;;;;;;;0.47;0.30;;;;;;;;;;4149928;28;21589;-40
2022/10/12 12:19:21;;;;;;;1.35;0.30;;;;;;;;;;4153381;28;20069;-41
2022/10/12 12:21:23;;;;;;;1.67;0.30;;;;;;;;;;4149564;28;20973;-40
2022/10/12 12:23:26;;;;;;;0.98;0.30;;;;;;;;;;4145741;28;20428;-40
2022/10/12 12:25:32;;;;;;;0.20;0.10;;;;;;;;;;4150628;28;20057;-40
2022/10/12 12:27:40;;;;;;;3.70;0.20;;;;;;;;;;4150146;28;20092;-41